sensor_id;sensor_type;location;lat;lon;timestamp;P1;durP1;ratioP1;P2;durP2;ratioP2
8230;SDS011;4156;50.908;6.974;2022-09-27T00:01:01;4.33;;;1.87;;
8230;SDS011;4156;50.908;6.974;2022-09-27T00:03:28;3.50;;;1.70;;
8230;SDS011;4156;50.908;6.974;2022-09-27T00:06:02;3.37;;;1.70;;
8230;SDS011;4156;50.908;6.974;2022-09-27T00:08:29;4.10;;;2.10;;
8230;SDS011;4156;50.908;6.974;2022-09-27T00:10:59;2.87;;;1.70;;
8230;SDS011;4156;50.908;6.974;2022-09-27T00:13:26;2.87;;;1.70;;
8230;SDS011;4156;50.908;6.974;2022-09-27T00:15:58;1.83;;;1.63;;
8230;SDS011;4156;50.908;6.974;2022-09-27T00:18:25;3.90;;;1.63;;
8230;SDS011;4156;50.908;6.974;2022-09-27T00:20:51;1.90;;;1.40;;
8230;SDS011;4156;50.908;6.974;2022-09-27T00:23:17;3.07;;;1.67;;
8230;SDS011;4156;50.908;6.974;2022-09-27T00:25:53;4.03;;;1.70;;
8230;SDS011;4156;50.908;6.974;2022-09-27T00:28:23;2.77;;;1.73;;
8230;SDS011;4156;50.908;6.974;2022-09-27T00:30:49;1.83;;;1.40;;
8230;SDS011;4156;50.908;6.974;2022-09-27T00:33:15;4.07;;;1.63;;
8230;SDS011;4156;50.908;6.974;2022-09-27T00:35:40;2.60;;;1.83;;
8230;SDS011;4156;50.908;6.974;2022-09-27T00:38:06;3.43;;;1.70;;
8230;SDS011;4156;50.908;6.974;2022-09-27T00:40:31;2.30;;;1.50;;
8230;SDS011;4156;50.908;6.974;2022-09-27T00:42:58;4.17;;;1.87;;
8230;SDS011;4156;50.908;6.974;2022-09-27T00:45:23;4.07;;;2.53;;
8230;SDS011;4156;50.908;6.974;2022-09-27T00:47:55;3.83;;;1.80;;
8230;SDS011;4156;50.908;6.974;2022-09-27T00:50:27;3.43;;;2.13;;
8230;SDS011;4156;50.908;6.974;2022-09-27T00:55:41;4.60;;;2.23;;
8230;SDS011;4156;50.908;6.974;2022-09-27T00:58:11;2.87;;;1.67;;
8230;SDS011;4156;50.908;6.974;2022-09-27T01:00:40;2.50;;;2.03;;
8230;SDS011;4156;50.908;6.974;2022-09-27T01:03:09;3.67;;;1.80;;
8230;SDS011;4156;50.908;6.974;2022-09-27T01:05:44;3.23;;;1.90;;
8230;SDS011;4156;50.908;6.974;2022-09-27T01:08:09;2.73;;;2.00;;
8230;SDS011;4156;50.908;6.974;2022-09-27T01:10:39;3.00;;;1.90;;
8230;SDS011;4156;50.908;6.974;2022-09-27T01:15:52;2.20;;;1.90;;
8230;SDS011;4156;50.908;6.974;2022-09-27T01:18:28;3.60;;;1.80;;
8230;SDS011;4156;50.908;6.974;2022-09-27T01:21:28;5.30;;;2.30;;
8230;SDS011;4156;50.908;6.974;2022-09-27T01:24:19;2.03;;;1.70;;
8230;SDS011;4156;50.908;6.974;2022-09-27T01:27:35;1.83;;;1.60;;
8230;SDS011;4156;50.908;6.974;2022-09-27T01:30:27;2.47;;;1.60;;
8230;SDS011;4156;50.908;6.974;2022-09-27T01:33:09;3.13;;;1.50;;
8230;SDS011;4156;50.908;6.974;2022-09-27T01:41:05;4.27;;;1.70;;
8230;SDS011;4156;50.908;6.974;2022-09-27T01:46:28;3.60;;;1.50;;
8230;SDS011;4156;50.908;6.974;2022-09-27T01:49:14;1.53;;;1.33;;
8230;SDS011;4156;50.908;6.974;2022-09-27T01:51:44;2.50;;;1.63;;
8230;SDS011;4156;50.908;6.974;2022-09-27T01:54:14;3.00;;;1.27;;
8230;SDS011;4156;50.908;6.974;2022-09-27T01:56:53;3.57;;;2.07;;
8230;SDS011;4156;50.908;6.974;2022-09-27T01:59:32;1.73;;;1.47;;
8230;SDS011;4156;50.908;6.974;2022-09-27T02:02:06;3.10;;;1.53;;
8230;SDS011;4156;50.908;6.974;2022-09-27T02:04:34;1.63;;;1.50;;
8230;SDS011;4156;50.908;6.974;2022-09-27T02:07:07;2.87;;;2.37;;
8230;SDS011;4156;50.908;6.974;2022-09-27T02:09:39;3.03;;;1.70;;
8230;SDS011;4156;50.908;6.974;2022-09-27T02:12:19;2.40;;;1.70;;
8230;SDS011;4156;50.908;6.974;2022-09-27T02:14:51;1.70;;;1.33;;
8230;SDS011;4156;50.908;6.974;2022-09-27T02:19:53;3.30;;;1.57;;
8230;SDS011;4156;50.908;6.974;2022-09-27T02:25:01;2.13;;;1.60;;
8230;SDS011;4156;50.908;6.974;2022-09-27T02:27:44;2.63;;;1.77;;
8230;SDS011;4156;50.908;6.974;2022-09-27T02:30:19;3.43;;;1.70;;
8230;SDS011;4156;50.908;6.974;2022-09-27T02:32:45;1.90;;;1.57;;
8230;SDS011;4156;50.908;6.974;2022-09-27T02:35:30;3.37;;;1.80;;
8230;SDS011;4156;50.908;6.974;2022-09-27T02:37:57;3.10;;;1.50;;
8230;SDS011;4156;50.908;6.974;2022-09-27T02:40:23;3.60;;;1.70;;
8230;SDS011;4156;50.908;6.974;2022-09-27T02:42:53;3.40;;;1.60;;
8230;SDS011;4156;50.908;6.974;2022-09-27T02:45:19;3.13;;;1.80;;
8230;SDS011;4156;50.908;6.974;2022-09-27T02:53:20;2.90;;;1.50;;
8230;SDS011;4156;50.908;6.974;2022-09-27T02:56:15;2.40;;;1.30;;
8230;SDS011;4156;50.908;6.974;2022-09-27T02:58:57;1.37;;;1.10;;
8230;SDS011;4156;50.908;6.974;2022-09-27T03:04:26;2.40;;;1.30;;
8230;SDS011;4156;50.908;6.974;2022-09-27T03:06:58;2.43;;;1.40;;
8230;SDS011;4156;50.908;6.974;2022-09-27T03:09:27;2.20;;;1.57;;
8230;SDS011;4156;50.908;6.974;2022-09-27T03:11:54;1.50;;;1.40;;
8230;SDS011;4156;50.908;6.974;2022-09-27T03:14:19;4.57;;;1.43;;
8230;SDS011;4156;50.908;6.974;2022-09-27T03:16:45;1.60;;;1.30;;
8230;SDS011;4156;50.908;6.974;2022-09-27T03:19:10;1.63;;;1.37;;
8230;SDS011;4156;50.908;6.974;2022-09-27T03:21:36;3.23;;;2.13;;
8230;SDS011;4156;50.908;6.974;2022-09-27T03:24:02;5.03;;;1.60;;
8230;SDS011;4156;50.908;6.974;2022-09-27T03:26:27;4.53;;;1.50;;
8230;SDS011;4156;50.908;6.974;2022-09-27T03:28:53;2.03;;;1.50;;
8230;SDS011;4156;50.908;6.974;2022-09-27T03:31:19;2.43;;;1.73;;
8230;SDS011;4156;50.908;6.974;2022-09-27T03:33:44;1.93;;;1.33;;
8230;SDS011;4156;50.908;6.974;2022-09-27T03:36:10;1.77;;;1.40;;
8230;SDS011;4156;50.908;6.974;2022-09-27T03:38:36;1.67;;;1.23;;
8230;SDS011;4156;50.908;6.974;2022-09-27T03:41:01;3.63;;;1.30;;
8230;SDS011;4156;50.908;6.974;2022-09-27T03:43:27;2.43;;;1.30;;
8230;SDS011;4156;50.908;6.974;2022-09-27T03:45:53;4.13;;;1.47;;
8230;SDS011;4156;50.908;6.974;2022-09-27T03:48:19;3.50;;;1.40;;
8230;SDS011;4156;50.908;6.974;2022-09-27T03:50:44;1.90;;;1.50;;
8230;SDS011;4156;50.908;6.974;2022-09-27T03:53:10;1.97;;;1.37;;
8230;SDS011;4156;50.908;6.974;2022-09-27T03:55:35;2.97;;;1.40;;
8230;SDS011;4156;50.908;6.974;2022-09-27T03:58:01;3.37;;;1.40;;
8230;SDS011;4156;50.908;6.974;2022-09-27T04:00:26;1.73;;;1.10;;
8230;SDS011;4156;50.908;6.974;2022-09-27T04:02:52;1.77;;;1.40;;
8230;SDS011;4156;50.908;6.974;2022-09-27T04:05:17;2.40;;;1.30;;
8230;SDS011;4156;50.908;6.974;2022-09-27T04:07:46;2.83;;;1.10;;
8230;SDS011;4156;50.908;6.974;2022-09-27T04:10:13;2.33;;;1.30;;
8230;SDS011;4156;50.908;6.974;2022-09-27T04:12:39;2.10;;;1.50;;
8230;SDS011;4156;50.908;6.974;2022-09-27T04:15:05;3.10;;;1.70;;
8230;SDS011;4156;50.908;6.974;2022-09-27T04:17:32;1.43;;;1.13;;
8230;SDS011;4156;50.908;6.974;2022-09-27T04:19:58;2.10;;;1.50;;
8230;SDS011;4156;50.908;6.974;2022-09-27T04:22:24;1.70;;;1.60;;
8230;SDS011;4156;50.908;6.974;2022-09-27T04:24:50;1.97;;;1.63;;
8230;SDS011;4156;50.908;6.974;2022-09-27T04:27:15;3.67;;;2.00;;
8230;SDS011;4156;50.908;6.974;2022-09-27T04:29:41;4.27;;;2.13;;
8230;SDS011;4156;50.908;6.974;2022-09-27T04:32:09;2.87;;;2.10;;
8230;SDS011;4156;50.908;6.974;2022-09-27T04:34:36;3.40;;;2.00;;
8230;SDS011;4156;50.908;6.974;2022-09-27T04:37:20;2.80;;;1.80;;
8230;SDS011;4156;50.908;6.974;2022-09-27T04:39:45;6.50;;;2.60;;
8230;SDS011;4156;50.908;6.974;2022-09-27T04:42:13;2.93;;;2.30;;
8230;SDS011;4156;50.908;6.974;2022-09-27T04:44:39;4.63;;;2.00;;
8230;SDS011;4156;50.908;6.974;2022-09-27T04:47:04;3.00;;;1.90;;
8230;SDS011;4156;50.908;6.974;2022-09-27T04:49:30;5.00;;;2.47;;
8230;SDS011;4156;50.908;6.974;2022-09-27T04:51:55;2.77;;;1.73;;
8230;SDS011;4156;50.908;6.974;2022-09-27T04:54:21;3.23;;;2.17;;
8230;SDS011;4156;50.908;6.974;2022-09-27T04:56:47;4.33;;;1.90;;
8230;SDS011;4156;50.908;6.974;2022-09-27T04:59:13;4.27;;;2.57;;
8230;SDS011;4156;50.908;6.974;2022-09-27T05:01:39;4.53;;;2.40;;
8230;SDS011;4156;50.908;6.974;2022-09-27T05:04:04;2.43;;;1.90;;
8230;SDS011;4156;50.908;6.974;2022-09-27T05:06:30;2.27;;;1.60;;
8230;SDS011;4156;50.908;6.974;2022-09-27T05:08:55;4.43;;;1.80;;
8230;SDS011;4156;50.908;6.974;2022-09-27T05:11:22;2.47;;;1.77;;
8230;SDS011;4156;50.908;6.974;2022-09-27T05:13:48;3.33;;;1.60;;
8230;SDS011;4156;50.908;6.974;2022-09-27T05:16:14;1.63;;;1.47;;
8230;SDS011;4156;50.908;6.974;2022-09-27T05:18:40;2.20;;;1.60;;
8230;SDS011;4156;50.908;6.974;2022-09-27T05:21:05;3.40;;;1.80;;
8230;SDS011;4156;50.908;6.974;2022-09-27T05:23:31;2.20;;;1.60;;
8230;SDS011;4156;50.908;6.974;2022-09-27T05:25:56;3.03;;;1.83;;
8230;SDS011;4156;50.908;6.974;2022-09-27T05:28:22;3.70;;;1.87;;
8230;SDS011;4156;50.908;6.974;2022-09-27T05:30:48;5.10;;;2.07;;
8230;SDS011;4156;50.908;6.974;2022-09-27T05:33:14;3.57;;;1.70;;
8230;SDS011;4156;50.908;6.974;2022-09-27T05:35:40;4.70;;;1.83;;
8230;SDS011;4156;50.908;6.974;2022-09-27T05:38:06;3.57;;;1.73;;
8230;SDS011;4156;50.908;6.974;2022-09-27T05:40:32;2.43;;;1.70;;
8230;SDS011;4156;50.908;6.974;2022-09-27T05:42:57;5.37;;;2.13;;
8230;SDS011;4156;50.908;6.974;2022-09-27T05:45:23;3.83;;;1.93;;
8230;SDS011;4156;50.908;6.974;2022-09-27T05:47:52;3.47;;;2.10;;
8230;SDS011;4156;50.908;6.974;2022-09-27T05:50:19;2.07;;;1.70;;
8230;SDS011;4156;50.908;6.974;2022-09-27T05:52:44;3.27;;;1.50;;
8230;SDS011;4156;50.908;6.974;2022-09-27T05:55:10;3.17;;;1.60;;
8230;SDS011;4156;50.908;6.974;2022-09-27T05:57:35;2.77;;;1.73;;
8230;SDS011;4156;50.908;6.974;2022-09-27T06:00:01;2.00;;;1.27;;
8230;SDS011;4156;50.908;6.974;2022-09-27T06:02:27;4.40;;;1.40;;
8230;SDS011;4156;50.908;6.974;2022-09-27T06:04:53;2.47;;;1.30;;
8230;SDS011;4156;50.908;6.974;2022-09-27T06:07:19;1.57;;;1.20;;
8230;SDS011;4156;50.908;6.974;2022-09-27T06:09:44;1.97;;;1.33;;
8230;SDS011;4156;50.908;6.974;2022-09-27T06:12:10;3.07;;;1.60;;
8230;SDS011;4156;50.908;6.974;2022-09-27T06:14:36;3.13;;;1.47;;
8230;SDS011;4156;50.908;6.974;2022-09-27T06:17:02;4.10;;;1.60;;
8230;SDS011;4156;50.908;6.974;2022-09-27T06:19:28;4.03;;;1.50;;
8230;SDS011;4156;50.908;6.974;2022-09-27T06:21:54;1.97;;;1.50;;
8230;SDS011;4156;50.908;6.974;2022-09-27T06:24:19;1.50;;;1.33;;
8230;SDS011;4156;50.908;6.974;2022-09-27T06:26:45;3.57;;;1.50;;
8230;SDS011;4156;50.908;6.974;2022-09-27T06:29:10;3.87;;;1.70;;
8230;SDS011;4156;50.908;6.974;2022-09-27T06:31:36;3.00;;;1.40;;
8230;SDS011;4156;50.908;6.974;2022-09-27T06:34:01;1.83;;;1.50;;
8230;SDS011;4156;50.908;6.974;2022-09-27T06:36:27;4.57;;;1.93;;
8230;SDS011;4156;50.908;6.974;2022-09-27T06:38:52;7.40;;;2.53;;
8230;SDS011;4156;50.908;6.974;2022-09-27T06:41:18;2.70;;;1.90;;
8230;SDS011;4156;50.908;6.974;2022-09-27T06:43:43;2.03;;;1.50;;
8230;SDS011;4156;50.908;6.974;2022-09-27T06:46:09;5.13;;;1.77;;
8230;SDS011;4156;50.908;6.974;2022-09-27T06:48:35;2.43;;;1.50;;
8230;SDS011;4156;50.908;6.974;2022-09-27T06:51:02;2.50;;;1.43;;
8230;SDS011;4156;50.908;6.974;2022-09-27T06:53:28;2.20;;;1.30;;
8230;SDS011;4156;50.908;6.974;2022-09-27T06:55:56;3.63;;;1.73;;
8230;SDS011;4156;50.908;6.974;2022-09-27T06:58:23;2.33;;;1.37;;
8230;SDS011;4156;50.908;6.974;2022-09-27T07:01:08;2.93;;;1.30;;
8230;SDS011;4156;50.908;6.974;2022-09-27T07:03:34;1.23;;;1.13;;
8230;SDS011;4156;50.908;6.974;2022-09-27T07:06:04;2.03;;;1.27;;
8230;SDS011;4156;50.908;6.974;2022-09-27T07:08:30;3.60;;;1.47;;
8230;SDS011;4156;50.908;6.974;2022-09-27T07:11:02;2.67;;;1.30;;
8230;SDS011;4156;50.908;6.974;2022-09-27T07:13:30;2.77;;;1.40;;
8230;SDS011;4156;50.908;6.974;2022-09-27T07:15:58;2.87;;;1.23;;
8230;SDS011;4156;50.908;6.974;2022-09-27T07:18:24;2.63;;;1.23;;
8230;SDS011;4156;50.908;6.974;2022-09-27T07:20:50;1.27;;;1.17;;
8230;SDS011;4156;50.908;6.974;2022-09-27T07:23:15;2.47;;;1.50;;
8230;SDS011;4156;50.908;6.974;2022-09-27T07:25:41;2.67;;;1.43;;
8230;SDS011;4156;50.908;6.974;2022-09-27T07:28:08;2.50;;;1.27;;
8230;SDS011;4156;50.908;6.974;2022-09-27T07:30:43;3.30;;;1.30;;
8230;SDS011;4156;50.908;6.974;2022-09-27T07:33:10;2.10;;;1.40;;
8230;SDS011;4156;50.908;6.974;2022-09-27T07:35:40;2.53;;;1.30;;
8230;SDS011;4156;50.908;6.974;2022-09-27T07:38:08;3.63;;;1.50;;
8230;SDS011;4156;50.908;6.974;2022-09-27T07:40:37;1.47;;;1.27;;
8230;SDS011;4156;50.908;6.974;2022-09-27T07:43:02;3.93;;;1.53;;
8230;SDS011;4156;50.908;6.974;2022-09-27T07:45:28;2.67;;;1.47;;
8230;SDS011;4156;50.908;6.974;2022-09-27T07:47:55;2.80;;;1.43;;
8230;SDS011;4156;50.908;6.974;2022-09-27T07:50:20;3.23;;;1.23;;
8230;SDS011;4156;50.908;6.974;2022-09-27T07:52:46;1.93;;;1.20;;
8230;SDS011;4156;50.908;6.974;2022-09-27T07:55:16;1.53;;;1.23;;
8230;SDS011;4156;50.908;6.974;2022-09-27T07:57:43;2.53;;;1.27;;
8230;SDS011;4156;50.908;6.974;2022-09-27T08:00:10;2.03;;;1.13;;
8230;SDS011;4156;50.908;6.974;2022-09-27T08:02:41;2.97;;;1.10;;
8230;SDS011;4156;50.908;6.974;2022-09-27T08:05:07;2.13;;;1.23;;
8230;SDS011;4156;50.908;6.974;2022-09-27T08:07:34;2.57;;;1.20;;
8230;SDS011;4156;50.908;6.974;2022-09-27T08:09:59;2.87;;;1.37;;
8230;SDS011;4156;50.908;6.974;2022-09-27T08:12:25;4.27;;;1.33;;
8230;SDS011;4156;50.908;6.974;2022-09-27T08:14:50;2.63;;;1.27;;
8230;SDS011;4156;50.908;6.974;2022-09-27T08:17:16;1.90;;;1.10;;
8230;SDS011;4156;50.908;6.974;2022-09-27T08:19:43;1.37;;;1.20;;
8230;SDS011;4156;50.908;6.974;2022-09-27T08:22:09;1.83;;;1.37;;
8230;SDS011;4156;50.908;6.974;2022-09-27T08:24:37;1.10;;;1.00;;
8230;SDS011;4156;50.908;6.974;2022-09-27T08:27:03;1.10;;;1.10;;
8230;SDS011;4156;50.908;6.974;2022-09-27T08:29:31;1.33;;;1.10;;
8230;SDS011;4156;50.908;6.974;2022-09-27T08:31:56;1.23;;;1.13;;
8230;SDS011;4156;50.908;6.974;2022-09-27T08:34:22;1.20;;;1.10;;
8230;SDS011;4156;50.908;6.974;2022-09-27T08:36:47;4.80;;;1.40;;
8230;SDS011;4156;50.908;6.974;2022-09-27T08:39:13;2.50;;;1.30;;
8230;SDS011;4156;50.908;6.974;2022-09-27T08:49:36;2.53;;;1.03;;
8230;SDS011;4156;50.908;6.974;2022-09-27T08:52:06;1.13;;;1.00;;
8230;SDS011;4156;50.908;6.974;2022-09-27T08:54:40;2.03;;;1.30;;
8230;SDS011;4156;50.908;6.974;2022-09-27T08:57:10;2.50;;;1.17;;
8230;SDS011;4156;50.908;6.974;2022-09-27T08:59:44;2.20;;;1.30;;
8230;SDS011;4156;50.908;6.974;2022-09-27T09:02:19;1.10;;;1.00;;
8230;SDS011;4156;50.908;6.974;2022-09-27T09:04:49;2.70;;;1.20;;
8230;SDS011;4156;50.908;6.974;2022-09-27T09:13:32;2.20;;;1.23;;
8230;SDS011;4156;50.908;6.974;2022-09-27T09:16:09;2.37;;;1.10;;
8230;SDS011;4156;50.908;6.974;2022-09-27T09:24:32;1.10;;;1.00;;
8230;SDS011;4156;50.908;6.974;2022-09-27T09:35:41;1.30;;;1.20;;
8230;SDS011;4156;50.908;6.974;2022-09-27T09:38:17;1.50;;;1.17;;
8230;SDS011;4156;50.908;6.974;2022-09-27T09:41:05;3.13;;;1.43;;
8230;SDS011;4156;50.908;6.974;2022-09-27T09:43:42;1.93;;;1.30;;
8230;SDS011;4156;50.908;6.974;2022-09-27T09:46:15;1.43;;;1.33;;
8230;SDS011;4156;50.908;6.974;2022-09-27T09:51:45;2.60;;;1.40;;
8230;SDS011;4156;50.908;6.974;2022-09-27T09:54:25;2.20;;;1.47;;
8230;SDS011;4156;50.908;6.974;2022-09-27T09:57:19;3.67;;;1.47;;
8230;SDS011;4156;50.908;6.974;2022-09-27T09:59:58;3.40;;;1.80;;
8230;SDS011;4156;50.908;6.974;2022-09-27T10:02:33;2.07;;;1.50;;
8230;SDS011;4156;50.908;6.974;2022-09-27T10:05:01;2.60;;;1.50;;
8230;SDS011;4156;50.908;6.974;2022-09-27T10:07:27;2.80;;;1.63;;
8230;SDS011;4156;50.908;6.974;2022-09-27T10:09:54;1.60;;;1.50;;
8230;SDS011;4156;50.908;6.974;2022-09-27T10:12:23;1.40;;;1.30;;
8230;SDS011;4156;50.908;6.974;2022-09-27T10:14:49;1.90;;;1.50;;
8230;SDS011;4156;50.908;6.974;2022-09-27T10:17:18;3.80;;;1.40;;
8230;SDS011;4156;50.908;6.974;2022-09-27T10:19:47;1.87;;;1.43;;
8230;SDS011;4156;50.908;6.974;2022-09-27T10:22:30;2.57;;;1.50;;
8230;SDS011;4156;50.908;6.974;2022-09-27T10:25:01;2.50;;;1.43;;
8230;SDS011;4156;50.908;6.974;2022-09-27T10:27:37;3.03;;;1.63;;
8230;SDS011;4156;50.908;6.974;2022-09-27T10:30:26;1.97;;;1.40;;
8230;SDS011;4156;50.908;6.974;2022-09-27T10:33:04;2.53;;;1.83;;
8230;SDS011;4156;50.908;6.974;2022-09-27T10:35:44;1.60;;;1.50;;
8230;SDS011;4156;50.908;6.974;2022-09-27T10:40:49;2.50;;;1.60;;
8230;SDS011;4156;50.908;6.974;2022-09-27T10:43:27;1.83;;;1.50;;
8230;SDS011;4156;50.908;6.974;2022-09-27T10:46:18;2.93;;;1.60;;
8230;SDS011;4156;50.908;6.974;2022-09-27T10:48:48;2.93;;;1.60;;
8230;SDS011;4156;50.908;6.974;2022-09-27T10:51:36;2.10;;;1.90;;
8230;SDS011;4156;50.908;6.974;2022-09-27T10:54:02;1.40;;;1.30;;
8230;SDS011;4156;50.908;6.974;2022-09-27T10:56:30;2.53;;;1.60;;
8230;SDS011;4156;50.908;6.974;2022-09-27T10:58:58;2.20;;;1.30;;
8230;SDS011;4156;50.908;6.974;2022-09-27T11:01:25;2.70;;;1.40;;
8230;SDS011;4156;50.908;6.974;2022-09-27T11:04:02;3.73;;;1.70;;
8230;SDS011;4156;50.908;6.974;2022-09-27T11:06:30;2.50;;;1.50;;
8230;SDS011;4156;50.908;6.974;2022-09-27T11:09:16;3.23;;;1.83;;
8230;SDS011;4156;50.908;6.974;2022-09-27T11:11:47;3.80;;;1.70;;
8230;SDS011;4156;50.908;6.974;2022-09-27T11:14:16;2.37;;;1.53;;
8230;SDS011;4156;50.908;6.974;2022-09-27T11:16:54;2.60;;;1.40;;
8230;SDS011;4156;50.908;6.974;2022-09-27T11:22:06;2.60;;;1.93;;
8230;SDS011;4156;50.908;6.974;2022-09-27T11:30:14;2.60;;;2.13;;
8230;SDS011;4156;50.908;6.974;2022-09-27T11:46:18;4.20;;;1.90;;
8230;SDS011;4156;50.908;6.974;2022-09-27T11:49:00;2.07;;;1.60;;
8230;SDS011;4156;50.908;6.974;2022-09-27T11:54:38;2.87;;;1.90;;
8230;SDS011;4156;50.908;6.974;2022-09-27T11:57:21;1.97;;;1.50;;
8230;SDS011;4156;50.908;6.974;2022-09-27T12:00:29;3.47;;;1.67;;
8230;SDS011;4156;50.908;6.974;2022-09-27T12:11:11;2.13;;;1.57;;
8230;SDS011;4156;50.908;6.974;2022-09-27T12:16:57;3.20;;;1.70;;
8230;SDS011;4156;50.908;6.974;2022-09-27T12:19:28;2.37;;;1.60;;
8230;SDS011;4156;50.908;6.974;2022-09-27T12:22:00;1.63;;;1.30;;
8230;SDS011;4156;50.908;6.974;2022-09-27T12:24:28;2.57;;;1.80;;
8230;SDS011;4156;50.908;6.974;2022-09-27T12:26:56;4.10;;;1.70;;
8230;SDS011;4156;50.908;6.974;2022-09-27T12:29:34;3.63;;;1.70;;
8230;SDS011;4156;50.908;6.974;2022-09-27T12:32:23;2.30;;;1.90;;
8230;SDS011;4156;50.908;6.974;2022-09-27T12:37:49;2.60;;;1.70;;
8230;SDS011;4156;50.908;6.974;2022-09-27T12:40:42;1.73;;;1.30;;
8230;SDS011;4156;50.908;6.974;2022-09-27T12:51:06;2.07;;;1.73;;
8230;SDS011;4156;50.908;6.974;2022-09-27T12:53:42;1.63;;;1.53;;
8230;SDS011;4156;50.908;6.974;2022-09-27T13:07:41;2.63;;;1.50;;
8230;SDS011;4156;50.908;6.974;2022-09-27T13:13:10;2.20;;;1.30;;
8230;SDS011;4156;50.908;6.974;2022-09-27T13:15:37;2.10;;;1.50;;
8230;SDS011;4156;50.908;6.974;2022-09-27T13:18:05;1.20;;;0.97;;
8230;SDS011;4156;50.908;6.974;2022-09-27T13:20:51;2.53;;;1.30;;
8230;SDS011;4156;50.908;6.974;2022-09-27T13:25:49;1.80;;;1.10;;
8230;SDS011;4156;50.908;6.974;2022-09-27T13:30:53;1.90;;;1.30;;
8230;SDS011;4156;50.908;6.974;2022-09-27T13:33:20;2.87;;;1.23;;
8230;SDS011;4156;50.908;6.974;2022-09-27T13:46:57;2.43;;;1.07;;
8230;SDS011;4156;50.908;6.974;2022-09-27T13:55:01;2.30;;;1.40;;
8230;SDS011;4156;50.908;6.974;2022-09-27T14:00:06;1.23;;;1.10;;
8230;SDS011;4156;50.908;6.974;2022-09-27T14:05:29;1.33;;;1.13;;
8230;SDS011;4156;50.908;6.974;2022-09-27T14:07:59;1.30;;;1.10;;
8230;SDS011;4156;50.908;6.974;2022-09-27T14:10:27;3.10;;;1.97;;
8230;SDS011;4156;50.908;6.974;2022-09-27T14:12:53;2.27;;;1.40;;
8230;SDS011;4156;50.908;6.974;2022-09-27T14:15:24;2.20;;;1.40;;
8230;SDS011;4156;50.908;6.974;2022-09-27T14:17:52;1.50;;;1.17;;
8230;SDS011;4156;50.908;6.974;2022-09-27T14:22:56;0.90;;;0.90;;
8230;SDS011;4156;50.908;6.974;2022-09-27T14:25:22;1.97;;;1.30;;
8230;SDS011;4156;50.908;6.974;2022-09-27T14:27:49;3.73;;;1.37;;
8230;SDS011;4156;50.908;6.974;2022-09-27T14:30:19;1.83;;;1.43;;
8230;SDS011;4156;50.908;6.974;2022-09-27T14:32:48;1.47;;;1.20;;
8230;SDS011;4156;50.908;6.974;2022-09-27T14:35:19;1.60;;;1.17;;
8230;SDS011;4156;50.908;6.974;2022-09-27T14:38:07;1.73;;;1.30;;
8230;SDS011;4156;50.908;6.974;2022-09-27T14:41:00;1.37;;;0.90;;
8230;SDS011;4156;50.908;6.974;2022-09-27T14:43:27;3.10;;;1.30;;
8230;SDS011;4156;50.908;6.974;2022-09-27T14:46:01;1.60;;;1.30;;
8230;SDS011;4156;50.908;6.974;2022-09-27T14:48:38;1.30;;;1.20;;
8230;SDS011;4156;50.908;6.974;2022-09-27T14:53:40;2.30;;;1.37;;
8230;SDS011;4156;50.908;6.974;2022-09-27T14:56:10;2.50;;;1.30;;
8230;SDS011;4156;50.908;6.974;2022-09-27T14:58:52;3.50;;;1.30;;
8230;SDS011;4156;50.908;6.974;2022-09-27T15:01:22;3.17;;;1.30;;
8230;SDS011;4156;50.908;6.974;2022-09-27T15:03:48;1.90;;;1.17;;
8230;SDS011;4156;50.908;6.974;2022-09-27T15:06:15;4.50;;;2.13;;
8230;SDS011;4156;50.908;6.974;2022-09-27T15:08:41;4.73;;;1.70;;
8230;SDS011;4156;50.908;6.974;2022-09-27T15:11:11;5.07;;;1.63;;
8230;SDS011;4156;50.908;6.974;2022-09-27T15:13:37;5.33;;;1.57;;
8230;SDS011;4156;50.908;6.974;2022-09-27T15:16:10;5.57;;;1.87;;
8230;SDS011;4156;50.908;6.974;2022-09-27T15:18:44;4.80;;;1.67;;
8230;SDS011;4156;50.908;6.974;2022-09-27T15:21:13;2.50;;;1.57;;
8230;SDS011;4156;50.908;6.974;2022-09-27T15:23:51;2.63;;;1.30;;
8230;SDS011;4156;50.908;6.974;2022-09-27T15:28:45;3.50;;;1.70;;
8230;SDS011;4156;50.908;6.974;2022-09-27T15:31:13;4.83;;;1.60;;
8230;SDS011;4156;50.908;6.974;2022-09-27T15:33:39;2.83;;;1.63;;
8230;SDS011;4156;50.908;6.974;2022-09-27T15:36:07;3.37;;;1.60;;
8230;SDS011;4156;50.908;6.974;2022-09-27T15:38:36;4.30;;;1.70;;
8230;SDS011;4156;50.908;6.974;2022-09-27T15:41:11;4.97;;;2.10;;
8230;SDS011;4156;50.908;6.974;2022-09-27T15:43:45;3.07;;;1.67;;
8230;SDS011;4156;50.908;6.974;2022-09-27T15:49:13;1.47;;;1.23;;
8230;SDS011;4156;50.908;6.974;2022-09-27T15:51:53;2.60;;;1.10;;
8230;SDS011;4156;50.908;6.974;2022-09-27T15:54:21;1.23;;;1.13;;
8230;SDS011;4156;50.908;6.974;2022-09-27T15:56:49;1.90;;;1.33;;
8230;SDS011;4156;50.908;6.974;2022-09-27T15:59:20;1.53;;;1.30;;
8230;SDS011;4156;50.908;6.974;2022-09-27T16:02:12;1.50;;;1.17;;
8230;SDS011;4156;50.908;6.974;2022-09-27T16:04:40;1.30;;;1.20;;
8230;SDS011;4156;50.908;6.974;2022-09-27T16:07:05;1.97;;;1.10;;
8230;SDS011;4156;50.908;6.974;2022-09-27T16:09:33;3.13;;;1.43;;
8230;SDS011;4156;50.908;6.974;2022-09-27T16:11:59;1.87;;;1.40;;
8230;SDS011;4156;50.908;6.974;2022-09-27T16:14:24;3.83;;;1.60;;
8230;SDS011;4156;50.908;6.974;2022-09-27T16:16:51;1.80;;;1.20;;
8230;SDS011;4156;50.908;6.974;2022-09-27T16:19:20;1.77;;;1.40;;
8230;SDS011;4156;50.908;6.974;2022-09-27T16:21:46;1.97;;;1.43;;
8230;SDS011;4156;50.908;6.974;2022-09-27T16:24:12;3.57;;;1.40;;
8230;SDS011;4156;50.908;6.974;2022-09-27T16:26:38;2.50;;;1.30;;
8230;SDS011;4156;50.908;6.974;2022-09-27T16:29:08;2.47;;;1.53;;
8230;SDS011;4156;50.908;6.974;2022-09-27T16:31:35;3.10;;;1.50;;
8230;SDS011;4156;50.908;6.974;2022-09-27T16:34:01;2.70;;;1.60;;
8230;SDS011;4156;50.908;6.974;2022-09-27T16:36:27;2.17;;;1.50;;
8230;SDS011;4156;50.908;6.974;2022-09-27T16:38:52;4.00;;;1.60;;
8230;SDS011;4156;50.908;6.974;2022-09-27T16:41:19;2.27;;;1.33;;
8230;SDS011;4156;50.908;6.974;2022-09-27T16:43:46;2.30;;;1.20;;
8230;SDS011;4156;50.908;6.974;2022-09-27T16:46:13;4.63;;;1.60;;
8230;SDS011;4156;50.908;6.974;2022-09-27T16:48:42;2.23;;;1.47;;
8230;SDS011;4156;50.908;6.974;2022-09-27T16:51:14;3.50;;;1.53;;
8230;SDS011;4156;50.908;6.974;2022-09-27T16:54:00;4.07;;;1.50;;
8230;SDS011;4156;50.908;6.974;2022-09-27T16:56:26;2.83;;;2.00;;
8230;SDS011;4156;50.908;6.974;2022-09-27T16:58:53;3.37;;;1.87;;
8230;SDS011;4156;50.908;6.974;2022-09-27T17:01:18;2.80;;;1.67;;
8230;SDS011;4156;50.908;6.974;2022-09-27T17:03:48;3.83;;;2.10;;
8230;SDS011;4156;50.908;6.974;2022-09-27T17:06:16;2.47;;;1.80;;
8230;SDS011;4156;50.908;6.974;2022-09-27T17:08:42;3.63;;;2.03;;
8230;SDS011;4156;50.908;6.974;2022-09-27T17:11:10;3.53;;;1.97;;
8230;SDS011;4156;50.908;6.974;2022-09-27T17:13:40;3.17;;;2.13;;
8230;SDS011;4156;50.908;6.974;2022-09-27T17:16:06;2.67;;;1.60;;
8230;SDS011;4156;50.908;6.974;2022-09-27T17:18:32;2.40;;;1.73;;
8230;SDS011;4156;50.908;6.974;2022-09-27T17:21:02;2.83;;;1.70;;
8230;SDS011;4156;50.908;6.974;2022-09-27T17:23:31;3.90;;;1.53;;
8230;SDS011;4156;50.908;6.974;2022-09-27T17:26:07;2.83;;;1.60;;
8230;SDS011;4156;50.908;6.974;2022-09-27T17:28:41;4.80;;;1.73;;
8230;SDS011;4156;50.908;6.974;2022-09-27T17:31:07;3.93;;;1.80;;
8230;SDS011;4156;50.908;6.974;2022-09-27T17:33:44;4.80;;;1.70;;
8230;SDS011;4156;50.908;6.974;2022-09-27T17:36:12;2.70;;;1.40;;
8230;SDS011;4156;50.908;6.974;2022-09-27T17:38:39;2.90;;;1.93;;
8230;SDS011;4156;50.908;6.974;2022-09-27T17:41:06;4.30;;;1.80;;
8230;SDS011;4156;50.908;6.974;2022-09-27T17:43:39;3.60;;;1.80;;
8230;SDS011;4156;50.908;6.974;2022-09-27T17:46:14;3.10;;;1.63;;
8230;SDS011;4156;50.908;6.974;2022-09-27T17:48:41;3.43;;;2.00;;
8230;SDS011;4156;50.908;6.974;2022-09-27T17:51:25;3.10;;;1.70;;
8230;SDS011;4156;50.908;6.974;2022-09-27T17:53:51;2.17;;;1.70;;
8230;SDS011;4156;50.908;6.974;2022-09-27T17:56:17;2.80;;;1.60;;
8230;SDS011;4156;50.908;6.974;2022-09-27T17:58:47;3.07;;;1.97;;
8230;SDS011;4156;50.908;6.974;2022-09-27T18:01:17;2.33;;;1.60;;
8230;SDS011;4156;50.908;6.974;2022-09-27T18:03:44;3.80;;;1.60;;
8230;SDS011;4156;50.908;6.974;2022-09-27T18:06:11;2.97;;;1.70;;
8230;SDS011;4156;50.908;6.974;2022-09-27T18:08:38;2.63;;;1.43;;
8230;SDS011;4156;50.908;6.974;2022-09-27T18:11:05;2.80;;;2.00;;
8230;SDS011;4156;50.908;6.974;2022-09-27T18:13:33;2.23;;;1.70;;